Flight Track Log - Related Links

Times and Time Zones

All times are in EST time to prevent confusion due to time zone crossing. See the ASQ5985 flight status page for this flight to view local times or setup timezone preferences in your user account.

Time Position Orientation Groundspeed Altitude Reporting Facility
EST Latitude Longitude Course Direction KTS MPH feet Rate Location/Type
Wed 07:13:12 PM 41.9333 -87.8833 135° Southeast 201 231 3,300  Level Chicago TRACON
Wed 07:14:12 PM 41.8833 -87.8167 135° Southeast 260 299 5,000 2,139 Climbing Chicago TRACON
Wed 07:14:53 PM 41.8539 -87.7742 133° Southeast 249 287 6,900 2,854 Climbing Chicago Center
Wed 07:15:55 PM 41.8350 -87.6686 103° East 292 336 9,900 1,500 Climbing Chicago Center
Wed 07:16:57 PM 41.8575 -87.5481 76° East 333 383 10,000 48 Climbing Chicago Center
Wed 07:17:59 PM 41.8339 -87.4197 104° East 365 420 10,000  Level Chicago Center
Wed 07:19:00 PM 41.7769 -87.2667 116° Southeast 378 435 10,000  Level Chicago Center
Wed 07:20:02 PM 41.7661 -87.1314 96° East 372 428 10,000  Level Chicago Center
Wed 07:22:06 PM 41.7686 -86.8586 89° East 367 422 10,000  Level Chicago Center
Wed 07:23:08 PM 41.7692 -86.7211 90° East 370 426 10,000 -194 Level Chicago Center
Wed 07:24:10 PM 41.7681 -86.5758 91° East 335 386 9,600 -1,210 Descending Chicago Center
Wed 07:25:12 PM 41.7678 -86.4694 90° East 292 336 7,500 -1,935 Descending Chicago Center
Wed 07:26:14 PM 41.7675 -86.3650 90° East 282 325 5,600 -1,355 Descending Chicago Center
Wed 07:27:16 PM 41.7728 -86.2656 86° East 273 314 4,700 -1,355 Descending Chicago Center
Wed 07:28:18 PM 41.7794 -86.1706 85° East 264 304 2,800 -1,113 Descending Chicago Center
Wed 07:29:20 PM 41.7803 -86.0867 89° East 249 287 2,400 -194 Descending Chicago Center
Wed 07:30:22 PM 41.7133 -86.0869 180° South 231 266 2,400  Level Chicago Center
Wed 07:31:24 PM 41.7061 -86.1639 263° West 219 252 2,400 -145 Level Chicago Center
Wed 07:32:26 PM 41.7050 -86.2261 269° West 186 214 2,100 -435 Descending Chicago Center
Wed 07:33:28 PM 41.7039 -86.2719 268° West 144 166 1,500 -581 Descending Chicago Center

Login

Don't have an account? Register now (free) for customized features, flight alerts, and more!